createdAt,value
2023-01-03T00:00:22.563Z,6.04
2023-01-03T00:02:50.804Z,6.08
2023-01-03T00:05:19.280Z,6.14
2023-01-03T00:07:48.820Z,6.21
2023-01-03T00:10:16.820Z,6.25
2023-01-03T00:12:43.828Z,6.33
2023-01-03T00:15:14.560Z,6.38
2023-01-03T00:17:42.742Z,6.49
2023-01-03T00:20:11.776Z,6.53
2023-01-03T00:22:39.863Z,6.61
2023-01-03T00:25:10.271Z,6.62
2023-01-03T00:27:38.486Z,6.71
2023-01-03T00:30:07.337Z,6.77
2023-01-03T00:32:35.579Z,6.79
2023-01-03T00:35:05.455Z,6.89
2023-01-03T00:37:33.804Z,6.92
2023-01-03T00:40:01.883Z,6.91
2023-01-03T00:42:51.457Z,6.92
2023-01-03T00:45:21.697Z,6.91
2023-01-03T00:47:52.095Z,6.92
2023-01-03T00:50:20.372Z,6.87
2023-01-03T00:52:48.420Z,6.87
2023-01-03T00:55:16.562Z,6.79
2023-01-03T00:57:46.143Z,6.82
2023-01-03T01:00:14.938Z,6.83
2023-01-03T01:02:43.401Z,6.81
2023-01-03T01:05:11.845Z,6.85
2023-01-03T01:07:40.386Z,6.84
2023-01-03T01:10:08.776Z,6.82
2023-01-03T01:12:36.972Z,6.85
2023-01-03T01:15:07.659Z,6.82
2023-01-03T01:17:36.076Z,6.84
2023-01-03T01:20:04.270Z,6.84
2023-01-03T01:22:33.067Z,6.86
2023-01-03T01:25:01.204Z,6.84
2023-01-03T01:27:29.354Z,6.84
2023-01-03T01:29:57.726Z,6.85
2023-01-03T01:32:27.280Z,6.82
2023-01-03T01:34:55.625Z,6.82
2023-01-03T01:37:23.710Z,6.80
2023-01-03T01:39:52.330Z,6.81
2023-01-03T01:42:37.863Z,6.84
2023-01-03T01:45:06.801Z,6.84
2023-01-03T01:47:39.674Z,6.88
2023-01-03T01:50:14.709Z,6.87
2023-01-03T01:52:46.070Z,6.88
2023-01-03T01:55:15.271Z,6.91
2023-01-03T01:57:44.304Z,6.90
2023-01-03T02:00:13.382Z,6.91
2023-01-03T02:02:49.460Z,6.94
2023-01-03T02:05:19.184Z,6.93
2023-01-03T02:07:49.998Z,6.95
2023-01-03T02:10:18.807Z,6.91
2023-01-03T02:13:08.449Z,6.94
2023-01-03T02:15:41.687Z,6.97
2023-01-03T02:18:20.598Z,6.98
2023-01-03T02:21:01.977Z,7.05
2023-01-03T02:23:36.346Z,7.07
2023-01-03T02:26:19.395Z,7.14
2023-01-03T02:29:02.556Z,7.18
2023-01-03T02:31:35.776Z,7.23
2023-01-03T02:34:05.970Z,7.25
2023-01-03T02:36:39.128Z,7.29
2023-01-03T02:39:12.913Z,7.31
2023-01-03T02:41:43.637Z,7.35
2023-01-03T02:44:15.304Z,7.38
2023-01-03T02:46:48.003Z,7.46
2023-01-03T02:49:23.329Z,7.47
2023-01-03T02:51:54.218Z,7.50
2023-01-03T02:54:26.255Z,7.56
2023-01-03T02:56:59.185Z,7.60
2023-01-03T02:59:32.358Z,7.62
2023-01-03T03:02:03.228Z,7.64
2023-01-03T03:04:32.287Z,7.69
2023-01-03T03:07:03.322Z,7.69
2023-01-03T03:09:31.733Z,7.71
2023-01-03T03:12:19.620Z,7.72
2023-01-03T03:14:50.379Z,7.73
2023-01-03T03:17:22.966Z,7.76
2023-01-03T03:20:10.604Z,7.78
2023-01-03T03:22:59.774Z,7.82
2023-01-03T03:25:30.179Z,7.82
2023-01-03T03:28:17.887Z,7.84
2023-01-03T03:30:47.468Z,7.90
2023-01-03T03:33:19.233Z,7.91
2023-01-03T03:35:49.170Z,7.95
2023-01-03T03:38:21.873Z,7.96
2023-01-03T03:41:11.888Z,7.99
2023-01-03T03:44:00.937Z,8.02
2023-01-03T03:46:33.309Z,8.04
2023-01-03T03:49:24.426Z,8.02
2023-01-03T03:51:55.473Z,8.01
2023-01-03T03:54:25.053Z,8.01
2023-01-03T03:56:57.371Z,7.96
2023-01-03T03:59:26.511Z,7.97
2023-01-03T04:01:55.551Z,7.94
2023-01-03T04:04:28.741Z,7.93
2023-01-03T04:06:56.908Z,7.89
2023-01-03T04:09:24.977Z,7.89
2023-01-03T04:11:52.997Z,7.90
2023-01-03T04:14:21.683Z,7.92
2023-01-03T04:16:49.828Z,7.96
2023-01-03T04:19:18.233Z,7.98
2023-01-03T04:21:47.807Z,8.02
2023-01-03T04:24:15.873Z,8.05
2023-01-03T04:26:44.074Z,8.08
2023-01-03T04:29:12.434Z,8.07
2023-01-03T04:31:40.578Z,8.08
2023-01-03T04:34:08.889Z,8.11
2023-01-03T04:36:36.982Z,8.09
2023-01-03T04:39:06.594Z,8.08
2023-01-03T04:41:34.654Z,8.06
2023-01-03T04:44:01.803Z,8.06
2023-01-03T04:46:31.643Z,8.06
2023-01-03T04:49:00.114Z,8.05
2023-01-03T04:51:28.677Z,8.06
2023-01-03T04:53:57.076Z,8.07
2023-01-03T04:56:27.446Z,8.04
2023-01-03T04:58:56.224Z,8.07
2023-01-03T05:01:24.778Z,8.06
2023-01-03T05:03:53.069Z,7.99
2023-01-03T05:06:21.273Z,8.01
2023-01-03T05:08:50.203Z,8.02
2023-01-03T05:11:18.479Z,7.96
2023-01-03T05:13:48.115Z,7.99
2023-01-03T05:16:16.985Z,7.96
2023-01-03T05:18:46.092Z,7.95
2023-01-03T05:21:32.997Z,7.98
2023-01-03T05:24:19.066Z,7.96
2023-01-03T05:26:47.422Z,7.97
2023-01-03T05:29:19.433Z,7.94
2023-01-03T05:31:47.989Z,7.92
2023-01-03T05:34:16.500Z,7.93
2023-01-03T05:36:44.571Z,7.93
2023-01-03T05:39:13.336Z,7.91
2023-01-03T05:41:59.007Z,7.90
2023-01-03T05:44:28.651Z,7.90
2023-01-03T05:46:56.922Z,7.88
2023-01-03T05:49:25.074Z,7.91
2023-01-03T05:51:53.348Z,7.86
2023-01-03T05:54:21.967Z,7.88
2023-01-03T05:56:51.313Z,7.85
2023-01-03T05:59:21.192Z,7.86
2023-01-03T06:01:51.119Z,7.82
2023-01-03T06:04:19.429Z,7.77
2023-01-03T06:06:48.703Z,7.75
2023-01-03T06:09:17.038Z,7.79
2023-01-03T06:11:45.372Z,7.75
2023-01-03T06:14:13.728Z,7.75
2023-01-03T06:16:59.337Z,7.74
2023-01-03T06:19:28.954Z,7.71
2023-01-03T06:21:57.201Z,7.70
2023-01-03T06:24:25.400Z,7.71
2023-01-03T06:26:53.666Z,7.70
2023-01-03T06:29:21.805Z,7.66
2023-01-03T06:31:49.943Z,7.67
2023-01-03T06:34:18.016Z,7.68
2023-01-03T06:36:47.871Z,7.67
2023-01-03T06:39:15.967Z,7.66
2023-01-03T06:41:44.051Z,7.65
2023-01-03T06:44:12.403Z,7.60
2023-01-03T06:46:57.848Z,7.60
2023-01-03T06:49:43.326Z,7.65
2023-01-03T06:52:32.917Z,7.66
2023-01-03T06:55:01.024Z,7.64
2023-01-03T06:57:29.178Z,7.65
2023-01-03T06:59:57.750Z,7.59
2023-01-03T07:02:26.102Z,7.58
2023-01-03T07:04:54.398Z,7.52
2023-01-03T07:07:24.072Z,7.51
2023-01-03T07:09:52.204Z,7.47
2023-01-03T07:12:37.623Z,7.48
2023-01-03T07:15:06.620Z,7.47
2023-01-03T07:17:35.007Z,7.48
2023-01-03T07:20:03.087Z,7.51
2023-01-03T07:22:32.854Z,7.52
2023-01-03T07:25:01.185Z,7.48
2023-01-03T07:27:29.405Z,7.48
2023-01-03T07:29:57.789Z,7.48
2023-01-03T07:32:26.174Z,7.46
2023-01-03T07:34:54.336Z,7.46
2023-01-03T07:37:22.376Z,7.44
2023-01-03T07:39:51.873Z,7.40
2023-01-03T07:42:37.375Z,7.40
2023-01-03T07:45:06.264Z,7.40
2023-01-03T07:47:34.480Z,7.39
2023-01-03T07:50:02.747Z,7.41
2023-01-03T07:52:30.991Z,7.41
2023-01-03T07:55:00.536Z,7.40
2023-01-03T07:57:29.421Z,7.39
2023-01-03T07:59:57.471Z,7.42
2023-01-03T08:02:25.697Z,7.46
2023-01-03T08:04:54.160Z,7.47
2023-01-03T08:07:22.596Z,7.47
2023-01-03T08:10:08.243Z,7.51
2023-01-03T08:12:55.444Z,7.56
2023-01-03T08:15:23.847Z,7.63
2023-01-03T08:17:52.145Z,7.66
2023-01-03T08:20:20.460Z,7.68
2023-01-03T08:22:48.561Z,7.73
2023-01-03T08:25:16.757Z,7.76
2023-01-03T08:27:50.186Z,7.77
2023-01-03T08:30:18.914Z,7.79
2023-01-03T08:32:46.944Z,7.78
2023-01-03T08:35:16.235Z,7.81
2023-01-03T08:37:46.043Z,7.81
2023-01-03T08:40:17.078Z,7.84
2023-01-03T08:42:47.231Z,7.83
2023-01-03T08:45:18.188Z,7.82
2023-01-03T08:47:47.326Z,7.85
2023-01-03T08:50:15.862Z,7.85
2023-01-03T08:52:43.977Z,7.83
2023-01-03T08:55:12.110Z,7.82
2023-01-03T08:57:40.458Z,7.81
2023-01-03T09:00:11.780Z,7.85
2023-01-03T09:02:40.898Z,7.81
2023-01-03T09:05:10.108Z,7.82
2023-01-03T09:07:38.703Z,7.81
2023-01-03T09:10:07.387Z,7.86
2023-01-03T09:12:35.636Z,7.87
2023-01-03T09:15:03.719Z,7.89
2023-01-03T09:17:33.448Z,7.91
2023-01-03T09:20:01.700Z,7.92
2023-01-03T09:22:29.920Z,7.95
2023-01-03T09:24:58.099Z,7.94
2023-01-03T09:27:26.927Z,7.94
2023-01-03T09:29:55.430Z,7.96
2023-01-03T09:32:24.106Z,8.00
2023-01-03T09:34:53.538Z,8.03
2023-01-03T09:37:21.762Z,8.06
2023-01-03T09:39:49.827Z,8.09
2023-01-03T09:42:37.550Z,8.15
2023-01-03T09:45:06.766Z,8.19
2023-01-03T09:47:37.175Z,8.22
2023-01-03T09:53:13.178Z,8.32
2023-01-03T09:56:09.240Z,8.35
2023-01-03T09:58:56.419Z,8.39
2023-01-03T10:01:51.045Z,8.42
2023-01-03T10:04:36.549Z,8.47
2023-01-03T10:07:12.804Z,8.51
2023-01-03T10:09:44.486Z,8.56
2023-01-03T10:12:17.698Z,8.56
2023-01-03T10:14:51.398Z,8.61
2023-01-03T10:17:23.800Z,8.62
2023-01-03T10:19:58.923Z,8.62
2023-01-03T10:22:29.296Z,8.67
2023-01-03T10:25:01.008Z,8.64
2023-01-03T10:27:32.429Z,8.65
2023-01-03T10:30:02.277Z,8.66
2023-01-03T10:32:46.601Z,8.66
2023-01-03T10:35:20.027Z,8.67
2023-01-03T10:37:52.397Z,8.68
2023-01-03T10:40:20.764Z,8.73
2023-01-03T10:42:50.570Z,8.71
2023-01-03T10:45:21.028Z,8.76
2023-01-03T10:47:59.037Z,8.79
2023-01-03T10:50:27.805Z,8.85
2023-01-03T10:52:59.837Z,8.87
2023-01-03T10:55:28.460Z,8.88
2023-01-03T10:58:01.207Z,8.90
2023-01-03T11:00:34.546Z,8.93
2023-01-03T11:03:14.624Z,8.99
2023-01-03T11:05:45.948Z,8.99
2023-01-03T11:08:30.683Z,9.05
2023-01-03T11:11:02.478Z,9.07
2023-01-03T11:13:36.046Z,9.07
2023-01-03T11:16:17.314Z,9.10
2023-01-03T11:19:00.485Z,9.13
2023-01-03T11:21:36.451Z,9.18
2023-01-03T11:24:10.593Z,9.16
2023-01-03T11:26:46.308Z,9.20
2023-01-03T11:29:25.258Z,9.26
2023-01-03T11:31:56.265Z,9.32
2023-01-03T11:35:11.603Z,9.35
2023-01-03T11:37:28.480Z,9.36
2023-01-03T11:40:04.115Z,9.39
2023-01-03T11:42:40.880Z,9.42
2023-01-03T11:45:23.632Z,9.40
2023-01-03T11:47:57.238Z,9.44
2023-01-03T11:50:29.098Z,9.47
2023-01-03T11:53:00.880Z,9.49
2023-01-03T11:55:38.781Z,9.57
2023-01-03T11:58:23.557Z,9.61
2023-01-03T12:01:03.026Z,9.63
2023-01-03T12:03:44.040Z,9.66
2023-01-03T12:06:17.575Z,9.69
2023-01-03T12:08:49.720Z,9.72
2023-01-03T12:11:25.968Z,9.73
2023-01-03T12:14:01.988Z,9.76
2023-01-03T12:16:33.050Z,9.81
2023-01-03T12:19:08.424Z,9.88
2023-01-03T12:21:42.771Z,9.92
2023-01-03T12:24:16.241Z,9.97
2023-01-03T12:26:50.183Z,10.02
2023-01-03T12:29:22.913Z,10.05
2023-01-03T12:31:55.420Z,10.16
2023-01-03T12:34:28.110Z,10.14
2023-01-03T12:37:01.856Z,10.24
2023-01-03T12:39:37.967Z,10.26
2023-01-03T12:42:09.533Z,10.32
2023-01-03T12:44:42.064Z,10.34
2023-01-03T12:47:16.204Z,10.38
2023-01-03T12:49:46.979Z,10.45
2023-01-03T12:52:19.250Z,10.43
2023-01-03T12:54:50.818Z,10.52
2023-01-03T12:57:39.477Z,10.52
2023-01-03T13:00:22.506Z,10.59
2023-01-03T13:02:55.536Z,10.62
2023-01-03T13:05:26.135Z,10.64
2023-01-03T13:08:04.531Z,10.67
2023-01-03T13:10:35.009Z,10.71
2023-01-03T13:13:03.606Z,10.77
2023-01-03T13:15:36.664Z,10.82
2023-01-03T13:18:33.419Z,10.84
2023-01-03T13:21:01.577Z,10.91
2023-01-03T13:23:33.267Z,10.97
2023-01-03T13:26:20.306Z,11.01
2023-01-03T13:28:49.877Z,11.03
2023-01-03T13:31:48.578Z,11.08
2023-01-03T13:34:34.861Z,11.17
2023-01-03T13:37:10.891Z,11.24
2023-01-03T13:39:39.425Z,11.32
2023-01-03T13:42:07.741Z,11.33
2023-01-03T13:44:37.103Z,11.33
2023-01-03T13:47:06.993Z,11.37
2023-01-03T13:49:37.002Z,11.39
2023-01-03T13:52:29.774Z,11.37
2023-01-03T13:55:03.354Z,11.36
2023-01-03T13:57:41.616Z,11.37
2023-01-03T14:00:19.065Z,11.42
2023-01-03T14:03:09.418Z,11.39
2023-01-03T14:06:12.377Z,11.43
2023-01-03T14:08:57.417Z,11.46
2023-01-03T14:11:40.379Z,11.49
2023-01-03T14:14:12.096Z,11.52
2023-01-03T14:16:46.955Z,11.56
2023-01-03T14:19:20.577Z,11.57
2023-01-03T14:21:50.255Z,11.59
2023-01-03T14:24:29.170Z,11.62
2023-01-03T14:27:04.942Z,11.60
2023-01-03T14:29:33.998Z,11.67
2023-01-03T14:32:02.229Z,11.67
2023-01-03T14:34:32.098Z,11.64
2023-01-03T14:37:04.792Z,11.67
2023-01-03T14:42:04.579Z,11.71
2023-01-03T14:44:33.453Z,11.72
2023-01-03T14:47:05.238Z,11.69
2023-01-03T14:49:36.775Z,11.71
2023-01-03T14:52:08.605Z,11.72
2023-01-03T14:54:44.394Z,11.73
2023-01-03T14:57:18.272Z,11.74
2023-01-03T14:59:46.849Z,11.73
2023-01-03T15:02:16.480Z,11.81
2023-01-03T15:04:45.408Z,11.79
2023-01-03T15:07:34.397Z,11.82
2023-01-03T15:10:07.281Z,11.89
2023-01-03T15:12:37.468Z,11.86
2023-01-03T15:15:09.774Z,11.90
2023-01-03T15:17:39.833Z,11.94
2023-01-03T15:20:10.645Z,11.97
2023-01-03T15:22:41.005Z,12.00
2023-01-03T15:25:21.207Z,12.02
2023-01-03T15:27:52.880Z,12.03
2023-01-03T15:30:27.392Z,12.07
2023-01-03T15:33:05.164Z,12.05
2023-01-03T15:35:37.199Z,12.04
2023-01-03T15:38:08.596Z,12.08
2023-01-03T15:40:41.834Z,12.07
2023-01-03T15:43:23.416Z,12.07
2023-01-03T15:45:59.949Z,12.06
2023-01-03T15:48:35.449Z,12.08
2023-01-03T15:51:05.905Z,12.12
2023-01-03T15:53:43.363Z,12.09
2023-01-03T15:56:20.507Z,12.10
2023-01-03T15:58:50.718Z,12.10
2023-01-03T16:01:21.159Z,12.10
2023-01-03T16:03:50.234Z,12.10
2023-01-03T16:06:21.454Z,12.12
2023-01-03T16:08:49.875Z,12.10
2023-01-03T16:11:28.025Z,12.09
2023-01-03T16:14:05.194Z,12.10
2023-01-03T16:16:37.648Z,12.06
2023-01-03T16:19:07.436Z,12.05
2023-01-03T16:21:36.553Z,12.02
2023-01-03T16:24:06.801Z,12.00
2023-01-03T16:26:38.018Z,12.03
2023-01-03T16:29:07.748Z,11.94
2023-01-03T16:31:38.618Z,12.00
2023-01-03T16:34:09.175Z,11.91
2023-01-03T16:36:40.787Z,11.92
2023-01-03T16:39:15.240Z,11.91
2023-01-03T16:42:02.841Z,11.87
2023-01-03T16:44:35.478Z,11.87
2023-01-03T16:47:05.897Z,11.75
2023-01-03T16:49:36.087Z,11.73
2023-01-03T16:52:04.317Z,11.67
2023-01-03T16:54:33.014Z,11.68
2023-01-03T16:57:03.660Z,11.71
2023-01-03T16:59:33.454Z,11.61
2023-01-03T17:02:02.191Z,11.61
2023-01-03T17:04:30.543Z,11.61
2023-01-03T17:07:02.009Z,11.56
2023-01-03T17:09:36.407Z,11.53
2023-01-03T17:12:06.562Z,11.51
2023-01-03T17:14:38.391Z,11.46
2023-01-03T17:17:07.385Z,11.52
2023-01-03T17:22:29.652Z,11.44
2023-01-03T17:24:59.098Z,11.48
2023-01-03T17:27:33.213Z,11.43
2023-01-03T17:30:05.370Z,11.43
2023-01-03T17:32:39.147Z,11.46
2023-01-03T17:35:13.849Z,11.39
2023-01-03T17:38:14.222Z,11.39
2023-01-03T17:40:33.971Z,11.35
2023-01-03T17:43:05.971Z,11.38
2023-01-03T17:45:51.778Z,11.38
2023-01-03T17:48:38.663Z,11.37
2023-01-03T17:51:08.294Z,11.35
2023-01-03T17:53:40.284Z,11.34
2023-01-03T17:56:08.807Z,11.36
2023-01-03T17:58:42.213Z,11.34
2023-01-03T18:01:10.632Z,11.33
2023-01-03T18:03:39.400Z,11.38
2023-01-03T18:06:09.673Z,11.34
2023-01-03T18:08:38.054Z,11.36
2023-01-03T18:11:08.876Z,11.36
2023-01-03T18:13:40.318Z,11.35
2023-01-03T18:16:08.852Z,11.35
2023-01-03T18:18:37.440Z,11.36
2023-01-03T18:21:08.575Z,11.34
2023-01-03T18:23:39.502Z,11.34
2023-01-03T18:26:10.756Z,11.31
2023-01-03T18:28:43.344Z,11.31
2023-01-03T18:31:14.843Z,11.31
2023-01-03T18:33:43.625Z,11.30
2023-01-03T18:36:25.220Z,11.33
2023-01-03T18:38:58.070Z,11.34
2023-01-03T18:41:28.815Z,11.34
2023-01-03T18:43:58.439Z,11.32
2023-01-03T18:46:27.886Z,11.34
2023-01-03T18:48:56.224Z,11.37
2023-01-03T18:51:25.684Z,11.35
2023-01-03T18:53:55.664Z,11.37
2023-01-03T18:56:28.562Z,11.37
2023-01-03T18:59:02.213Z,11.35
2023-01-03T19:01:33.442Z,11.40
2023-01-03T19:04:01.838Z,11.42
2023-01-03T19:06:33.876Z,11.39
2023-01-03T19:09:03.704Z,11.37
2023-01-03T19:11:34.138Z,11.39
2023-01-03T19:14:05.193Z,11.38
2023-01-03T19:16:36.649Z,11.35
2023-01-03T19:19:05.973Z,11.31
2023-01-03T19:21:35.482Z,11.37
2023-01-03T19:24:05.456Z,11.34
2023-01-03T19:26:35.780Z,11.37
2023-01-03T19:29:05.900Z,11.34
2023-01-03T19:31:47.335Z,11.33
2023-01-03T19:34:16.406Z,11.33
2023-01-03T19:36:44.858Z,11.36
2023-01-03T19:39:13.273Z,11.35
2023-01-03T19:42:05.540Z,11.37
2023-01-03T19:44:37.184Z,11.35
2023-01-03T19:47:14.727Z,11.37
2023-01-03T19:49:48.408Z,11.39
2023-01-03T19:52:17.952Z,11.39
2023-01-03T19:54:48.284Z,11.39
2023-01-03T19:57:18.657Z,11.38
2023-01-03T19:59:51.631Z,11.36
2023-01-03T20:02:39.483Z,11.35
2023-01-03T20:05:20.230Z,11.35
2023-01-03T20:07:50.745Z,11.39
2023-01-03T20:10:21.049Z,11.43
2023-01-03T20:12:49.897Z,11.42
2023-01-03T20:15:23.869Z,11.41
2023-01-03T20:17:55.416Z,11.42
2023-01-03T20:20:24.403Z,11.41
2023-01-03T20:23:06.285Z,11.41
2023-01-03T20:25:37.212Z,11.43
2023-01-03T20:28:07.122Z,11.44
2023-01-03T20:30:39.982Z,11.39
2023-01-03T20:33:09.891Z,11.41
2023-01-03T20:38:40.648Z,11.46
2023-01-03T20:41:10.721Z,11.47
2023-01-03T20:43:40.197Z,11.46
2023-01-03T20:46:12.808Z,11.51
2023-01-03T20:48:43.670Z,11.51
2023-01-03T20:51:14.840Z,11.49
2023-01-03T20:53:47.840Z,11.49
2023-01-03T20:56:18.585Z,11.49
2023-01-03T20:58:46.665Z,11.50
2023-01-03T21:01:16.259Z,11.54
2023-01-03T21:03:47.477Z,11.53
2023-01-03T21:06:21.547Z,11.51
2023-01-03T21:08:58.194Z,11.56
2023-01-03T21:11:27.448Z,11.55
2023-01-03T21:13:55.901Z,11.53
2023-01-03T21:16:29.004Z,11.56
2023-01-03T21:19:01.881Z,11.54
2023-01-03T21:21:30.981Z,11.53
2023-01-03T21:23:59.492Z,11.52
2023-01-03T21:26:27.806Z,11.55
2023-01-03T21:28:56.121Z,11.56
2023-01-03T21:31:25.310Z,11.50
2023-01-03T21:33:54.331Z,11.50
2023-01-03T21:36:26.691Z,11.47
2023-01-03T21:38:55.081Z,11.50
2023-01-03T21:41:25.903Z,11.51
2023-01-03T21:43:56.077Z,11.55
2023-01-03T21:46:25.631Z,11.55
2023-01-03T21:48:56.225Z,11.58
2023-01-03T21:51:41.122Z,11.53
2023-01-03T21:54:09.697Z,11.57
2023-01-03T21:56:45.812Z,11.59
2023-01-03T21:59:15.499Z,11.58
2023-01-03T22:02:01.699Z,11.59
2023-01-03T22:04:29.988Z,11.63
2023-01-03T22:07:01.122Z,11.65
2023-01-03T22:09:47.562Z,11.67
2023-01-03T22:12:17.870Z,11.66
2023-01-03T22:14:46.159Z,11.62
2023-01-03T22:17:15.410Z,11.63
2023-01-03T22:19:43.648Z,11.56
2023-01-03T22:22:13.483Z,11.58
2023-01-03T22:24:42.389Z,11.56
2023-01-03T22:27:10.438Z,11.58
2023-01-03T22:29:39.015Z,11.58
2023-01-03T22:32:07.596Z,11.57
2023-01-03T22:34:38.957Z,11.54
2023-01-03T22:37:07.817Z,11.58
2023-01-03T22:39:38.439Z,11.52
2023-01-03T22:42:06.900Z,11.52
2023-01-03T22:44:35.316Z,11.47
2023-01-03T22:47:04.364Z,11.41
2023-01-03T22:49:32.848Z,11.35
2023-01-03T22:52:02.343Z,11.36
2023-01-03T22:54:30.477Z,11.37
2023-01-03T22:57:00.832Z,11.32
2023-01-03T22:59:30.459Z,11.34
2023-01-03T23:01:58.778Z,11.32
2023-01-03T23:04:27.994Z,11.30
2023-01-03T23:06:56.374Z,11.29
2023-01-03T23:09:25.866Z,11.31
2023-01-03T23:12:11.469Z,11.30
2023-01-03T23:14:41.407Z,11.27
2023-01-03T23:17:27.477Z,11.25
2023-01-03T23:19:55.975Z,11.13
2023-01-03T23:22:24.785Z,11.16
2023-01-03T23:24:53.626Z,11.14
2023-01-03T23:27:23.205Z,11.18
2023-01-03T23:29:52.950Z,11.19
2023-01-03T23:32:21.059Z,11.15
2023-01-03T23:34:49.119Z,11.15
2023-01-03T23:37:17.306Z,11.12
2023-01-03T23:39:45.451Z,11.12
2023-01-03T23:42:13.622Z,11.08
2023-01-03T23:44:41.825Z,11.05
2023-01-03T23:47:16.602Z,11.00
2023-01-03T23:49:46.543Z,10.94
2023-01-03T23:52:15.553Z,10.92
2023-01-03T23:54:46.623Z,10.92
2023-01-03T23:57:14.687Z,10.92
2023-01-03T23:59:43.676Z,10.88
